Yamato — JD2252 — position and weather

sailwx.info

Track history (hours):
 
Tides and Currents Weather Stations Pressure Air Temp Water Temp Dewpoint Dewpoint Depression Visibility Wind Speed Wind Dir Waves Ship Positions

Yamato

Last reported at 2016-Aug-23 07:08 UTC. Time now 2016-Aug-25 11:28 UTC.
Position N 35°16' E 139°41'.

Length 40 m; draft 3.6 m.

Type: Tug. MMSI: 431101141.

Date/timePositionNaut miles runAvg speedWind from/ knotsBaromVisibWave heightAir tempDewpointWater temp
2016-Aug-23 07:08N 35°16' E 139°41'2 3.2
2016-Aug-23 06:34N 35°18' E 139°42'2 2.3
2016-Aug-23 05:33N 35°21' E 139°41'  
2016-Aug-17 00:33N 35°20' E 139°42'8 7.8
2016-Aug-16 23:34N 35°28' E 139°39'0 0.2
2016-Aug-16 22:33N 35°27' E 139°39'0 0.0
2016-Aug-16 21:33N 35°27' E 139°39'0 0.0
2016-Aug-16 20:33N 35°27' E 139°39'0 0.0
2016-Aug-16 19:33N 35°27' E 139°39'0 0.0
2016-Aug-16 18:33N 35°27' E 139°39'0 0.0
2016-Aug-16 17:33N 35°27' E 139°39'0 0.0
2016-Aug-16 16:33N 35°27' E 139°39'0 0.0
2016-Aug-16 15:33N 35°27' E 139°39'0 0.0
2016-Aug-16 14:33N 35°27' E 139°39'0 0.0
2016-Aug-16 13:33N 35°27' E 139°39'0 0.0
2016-Aug-16 12:33N 35°27' E 139°39'0 0.0
2016-Aug-16 11:33N 35°27' E 139°39'0 0.0
2016-Aug-16 10:33N 35°27' E 139°39'0 0.0
2016-Aug-16 09:33N 35°27' E 139°39'0 0.2
2016-Aug-16 08:34N 35°27' E 139°39'2 1.6
2016-Aug-16 07:33N 35°27' E 139°41'1 0.3
2016-Aug-16 04:34N 35°27' E 139°42'1 1.3
2016-Aug-16 03:33N 35°28' E 139°41'0 0.0
2016-Aug-16 02:33N 35°28' E 139°41'0 0.0
2016-Aug-16 01:33N 35°28' E 139°41'0 0.0
2016-Aug-16 00:33N 35°28' E 139°41'3 2.8
2016-Aug-15 23:33N 35°29' E 139°43'2 1.6
2016-Aug-15 22:33N 35°28' E 139°42'3 2.7
2016-Aug-15 21:33N 35°27' E 139°39'1 0.1
2016-Aug-15 02:33N 35°29' E 139°39'1 1.4
2016-Aug-15 01:33N 35°27' E 139°39'0 0.0
2016-Aug-15 00:33N 35°27' E 139°39'0 0.0
2016-Aug-14 23:33N 35°27' E 139°39'7 7.2
2016-Aug-14 22:34N 35°31' E 139°46'4 4.3
2016-Aug-14 21:33N 35°28' E 139°43'2 2.2
2016-Aug-14 20:33N 35°27' E 139°40'1 1.0
2016-Aug-14 19:33N 35°27' E 139°39'0 0.0
2016-Aug-14 18:33N 35°27' E 139°39'0 0.0
2016-Aug-14 17:33N 35°27' E 139°39'0 0.0
2016-Aug-14 16:33N 35°27' E 139°39'0 0.0
2016-Aug-14 15:33N 35°27' E 139°39'0 0.0
2016-Aug-14 14:33N 35°27' E 139°39'0 0.0
2016-Aug-14 13:33N 35°27' E 139°39'0 0.0
2016-Aug-14 12:33N 35°27' E 139°39'0 0.0
2016-Aug-14 11:33N 35°27' E 139°39'0 0.0
2016-Aug-14 10:33N 35°27' E 139°39'0 0.0
2016-Aug-14 09:33N 35°27' E 139°39'1 1.2
2016-Aug-14 08:33N 35°27' E 139°40'1 1.2
2016-Aug-14 07:34N 35°26' E 139°41'2 2.2
2016-Aug-14 06:33N 35°27' E 139°39'0 0.0
2016-Aug-14 04:33N 35°27' E 139°39'0 0.0
2016-Aug-14 03:33N 35°27' E 139°39'2 2.1
2016-Aug-14 02:33N 35°26' E 139°41'2 1.7
2016-Aug-14 01:33N 35°28' E 139°41'2 2.3
2016-Aug-14 00:33N 35°27' E 139°43'4 3.7
2016-Aug-13 23:34N 35°27' E 139°39'0 0.0
2016-Aug-13 22:33N 35°27' E 139°39'0 0.0
2016-Aug-13 21:33N 35°27' E 139°39'0 0.0
2016-Aug-13 20:33N 35°27' E 139°39'0 0.0
2016-Aug-13 19:33N 35°27' E 139°39'0 0.0
2016-Aug-13 18:33N 35°27' E 139°39'0 0.0
2016-Aug-13 17:33N 35°27' E 139°39'0 0.0
2016-Aug-13 16:33N 35°27' E 139°39'0 0.0
2016-Aug-13 15:33N 35°27' E 139°39'0 0.0
2016-Aug-13 14:33N 35°27' E 139°39'0 0.0
2016-Aug-13 13:33N 35°27' E 139°39'0 0.0
2016-Aug-13 12:34N 35°27' E 139°39'0 0.0
2016-Aug-13 11:33N 35°27' E 139°39'0 0.0
2016-Aug-13 10:33N 35°27' E 139°39'0 0.0
2016-Aug-13 09:34N 35°27' E 139°39'0 0.0
2016-Aug-13 08:34N 35°27' E 139°39'0 0.0
2016-Aug-13 07:34N 35°27' E 139°39'  
Track history (hours):
 
Tides and Currents Weather Stations Pressure Air Temp Water Temp Dewpoint Dewpoint Depression Visibility Wind Speed Wind Dir Waves Ship Positions

Yamato

Last reported at 2016-Aug-23 07:08 UTC. Time now 2016-Aug-25 11:28 UTC.
Position N 35°16' E 139°41'.

Length 40 m; draft 3.6 m.

Type: Tug. MMSI: 431101141.

Date/timePositionNaut miles runAvg speedWind from/ knotsBaromVisibWave heightAir tempDewpointWater temp
2016-Aug-23 07:08N 35°16' E 139°41'2 3.2
2016-Aug-23 06:34N 35°18' E 139°42'2 2.3
2016-Aug-23 05:33N 35°21' E 139°41'  
2016-Aug-17 00:33N 35°20' E 139°42'8 7.8
2016-Aug-16 23:34N 35°28' E 139°39'0 0.2
2016-Aug-16 22:33N 35°27' E 139°39'0 0.0
2016-Aug-16 21:33N 35°27' E 139°39'0 0.0
2016-Aug-16 20:33N 35°27' E 139°39'0 0.0
2016-Aug-16 19:33N 35°27' E 139°39'0 0.0
2016-Aug-16 18:33N 35°27' E 139°39'0 0.0
2016-Aug-16 17:33N 35°27' E 139°39'0 0.0
2016-Aug-16 16:33N 35°27' E 139°39'0 0.0
2016-Aug-16 15:33N 35°27' E 139°39'0 0.0
2016-Aug-16 14:33N 35°27' E 139°39'0 0.0
2016-Aug-16 13:33N 35°27' E 139°39'0 0.0
2016-Aug-16 12:33N 35°27' E 139°39'0 0.0
2016-Aug-16 11:33N 35°27' E 139°39'0 0.0
2016-Aug-16 10:33N 35°27' E 139°39'0 0.0
2016-Aug-16 09:33N 35°27' E 139°39'0 0.2
2016-Aug-16 08:34N 35°27' E 139°39'2 1.6
2016-Aug-16 07:33N 35°27' E 139°41'1 0.3
2016-Aug-16 04:34N 35°27' E 139°42'1 1.3
2016-Aug-16 03:33N 35°28' E 139°41'0 0.0
2016-Aug-16 02:33N 35°28' E 139°41'0 0.0
2016-Aug-16 01:33N 35°28' E 139°41'0 0.0
2016-Aug-16 00:33N 35°28' E 139°41'3 2.8
2016-Aug-15 23:33N 35°29' E 139°43'2 1.6
2016-Aug-15 22:33N 35°28' E 139°42'3 2.7
2016-Aug-15 21:33N 35°27' E 139°39'1 0.1
2016-Aug-15 02:33N 35°29' E 139°39'1 1.4
2016-Aug-15 01:33N 35°27' E 139°39'0 0.0
2016-Aug-15 00:33N 35°27' E 139°39'0 0.0
2016-Aug-14 23:33N 35°27' E 139°39'7 7.2
2016-Aug-14 22:34N 35°31' E 139°46'4 4.3
2016-Aug-14 21:33N 35°28' E 139°43'2 2.2
2016-Aug-14 20:33N 35°27' E 139°40'1 1.0
2016-Aug-14 19:33N 35°27' E 139°39'0 0.0
2016-Aug-14 18:33N 35°27' E 139°39'0 0.0
2016-Aug-14 17:33N 35°27' E 139°39'0 0.0
2016-Aug-14 16:33N 35°27' E 139°39'0 0.0
2016-Aug-14 15:33N 35°27' E 139°39'0 0.0
2016-Aug-14 14:33N 35°27' E 139°39'0 0.0
2016-Aug-14 13:33N 35°27' E 139°39'0 0.0
2016-Aug-14 12:33N 35°27' E 139°39'0 0.0
2016-Aug-14 11:33N 35°27' E 139°39'0 0.0
2016-Aug-14 10:33N 35°27' E 139°39'0 0.0
2016-Aug-14 09:33N 35°27' E 139°39'1 1.2
2016-Aug-14 08:33N 35°27' E 139°40'1 1.2
2016-Aug-14 07:34N 35°26' E 139°41'2 2.2
2016-Aug-14 06:33N 35°27' E 139°39'0 0.0
2016-Aug-14 04:33N 35°27' E 139°39'0 0.0
2016-Aug-14 03:33N 35°27' E 139°39'2 2.1
2016-Aug-14 02:33N 35°26' E 139°41'2 1.7
2016-Aug-14 01:33N 35°28' E 139°41'2 2.3
2016-Aug-14 00:33N 35°27' E 139°43'4 3.7
2016-Aug-13 23:34N 35°27' E 139°39'0 0.0
2016-Aug-13 22:33N 35°27' E 139°39'0 0.0
2016-Aug-13 21:33N 35°27' E 139°39'0 0.0
2016-Aug-13 20:33N 35°27' E 139°39'0 0.0
2016-Aug-13 19:33N 35°27' E 139°39'0 0.0
2016-Aug-13 18:33N 35°27' E 139°39'0 0.0
2016-Aug-13 17:33N 35°27' E 139°39'0 0.0
2016-Aug-13 16:33N 35°27' E 139°39'0 0.0
2016-Aug-13 15:33N 35°27' E 139°39'0 0.0
2016-Aug-13 14:33N 35°27' E 139°39'0 0.0
2016-Aug-13 13:33N 35°27' E 139°39'0 0.0
2016-Aug-13 12:34N 35°27' E 139°39'0 0.0
2016-Aug-13 11:33N 35°27' E 139°39'0 0.0
2016-Aug-13 10:33N 35°27' E 139°39'0 0.0
2016-Aug-13 09:34N 35°27' E 139°39'0 0.0
2016-Aug-13 08:34N 35°27' E 139°39'0 0.0
2016-Aug-13 07:34N 35°27' E 139°39'  

Dump ship's entire track history